sensor_id;sensor_type;location;lat;lon;timestamp;P1;durP1;ratioP1;P2;durP2;ratioP2
43678;SDS011;29279;50.858;4.392;2023-09-30T00:00:25;19.10;;;7.80;;
43678;SDS011;29279;50.858;4.392;2023-09-30T00:02:51;15.23;;;7.32;;
43678;SDS011;29279;50.858;4.392;2023-09-30T00:05:17;13.68;;;7.78;;
43678;SDS011;29279;50.858;4.392;2023-09-30T00:07:45;18.73;;;8.48;;
43678;SDS011;29279;50.858;4.392;2023-09-30T00:10:11;18.58;;;8.27;;
43678;SDS011;29279;50.858;4.392;2023-09-30T00:12:37;20.88;;;8.30;;
43678;SDS011;29279;50.858;4.392;2023-09-30T00:15:03;17.40;;;8.52;;
43678;SDS011;29279;50.858;4.392;2023-09-30T00:17:29;14.85;;;8.25;;
43678;SDS011;29279;50.858;4.392;2023-09-30T00:19:55;18.80;;;8.25;;
43678;SDS011;29279;50.858;4.392;2023-09-30T00:22:21;22.05;;;10.27;;
43678;SDS011;29279;50.858;4.392;2023-09-30T00:24:46;15.98;;;8.50;;
43678;SDS011;29279;50.858;4.392;2023-09-30T00:27:13;17.17;;;10.10;;
43678;SDS011;29279;50.858;4.392;2023-09-30T00:29:38;20.05;;;10.25;;
43678;SDS011;29279;50.858;4.392;2023-09-30T00:32:04;15.15;;;9.27;;
43678;SDS011;29279;50.858;4.392;2023-09-30T00:34:33;26.45;;;10.20;;
43678;SDS011;29279;50.858;4.392;2023-09-30T00:37:00;26.40;;;9.55;;
43678;SDS011;29279;50.858;4.392;2023-09-30T00:39:26;19.35;;;9.98;;
43678;SDS011;29279;50.858;4.392;2023-09-30T00:41:55;20.10;;;9.57;;
43678;SDS011;29279;50.858;4.392;2023-09-30T00:44:27;22.77;;;9.60;;
43678;SDS011;29279;50.858;4.392;2023-09-30T00:46:54;17.92;;;9.07;;
43678;SDS011;29279;50.858;4.392;2023-09-30T00:49:21;16.83;;;8.77;;
43678;SDS011;29279;50.858;4.392;2023-09-30T00:51:48;19.40;;;9.32;;
43678;SDS011;29279;50.858;4.392;2023-09-30T00:54:14;24.55;;;9.70;;
43678;SDS011;29279;50.858;4.392;2023-09-30T00:56:43;25.73;;;9.52;;
43678;SDS011;29279;50.858;4.392;2023-09-30T00:59:11;20.98;;;9.40;;
43678;SDS011;29279;50.858;4.392;2023-09-30T01:01:43;16.38;;;8.50;;
43678;SDS011;29279;50.858;4.392;2023-09-30T01:04:10;16.90;;;7.88;;
43678;SDS011;29279;50.858;4.392;2023-09-30T01:06:37;22.48;;;7.80;;
43678;SDS011;29279;50.858;4.392;2023-09-30T01:09:03;21.75;;;8.40;;
43678;SDS011;29279;50.858;4.392;2023-09-30T01:11:29;16.35;;;7.43;;
43678;SDS011;29279;50.858;4.392;2023-09-30T01:13:55;18.85;;;8.07;;
43678;SDS011;29279;50.858;4.392;2023-09-30T01:16:22;18.35;;;7.88;;
43678;SDS011;29279;50.858;4.392;2023-09-30T01:18:48;25.35;;;8.88;;
43678;SDS011;29279;50.858;4.392;2023-09-30T01:21:14;19.50;;;7.63;;
43678;SDS011;29279;50.858;4.392;2023-09-30T01:23:40;21.38;;;7.80;;
43678;SDS011;29279;50.858;4.392;2023-09-30T01:26:09;23.45;;;8.07;;
43678;SDS011;29279;50.858;4.392;2023-09-30T01:28:37;24.38;;;7.45;;
43678;SDS011;29279;50.858;4.392;2023-09-30T01:31:04;22.35;;;8.80;;
43678;SDS011;29279;50.858;4.392;2023-09-30T01:33:30;25.25;;;8.90;;
43678;SDS011;29279;50.858;4.392;2023-09-30T01:35:57;21.40;;;7.55;;
43678;SDS011;29279;50.858;4.392;2023-09-30T01:38:23;22.73;;;7.57;;
43678;SDS011;29279;50.858;4.392;2023-09-30T01:40:49;20.27;;;7.50;;
43678;SDS011;29279;50.858;4.392;2023-09-30T01:43:15;22.73;;;8.07;;
43678;SDS011;29279;50.858;4.392;2023-09-30T01:45:41;23.25;;;7.53;;
43678;SDS011;29279;50.858;4.392;2023-09-30T01:48:07;26.48;;;7.50;;
43678;SDS011;29279;50.858;4.392;2023-09-30T01:50:35;20.77;;;7.55;;
43678;SDS011;29279;50.858;4.392;2023-09-30T01:53:03;20.25;;;7.68;;
43678;SDS011;29279;50.858;4.392;2023-09-30T01:55:30;22.85;;;7.00;;
43678;SDS011;29279;50.858;4.392;2023-09-30T01:57:55;19.02;;;8.25;;
43678;SDS011;29279;50.858;4.392;2023-09-30T02:00:21;22.30;;;7.53;;
43678;SDS011;29279;50.858;4.392;2023-09-30T02:02:47;26.80;;;7.45;;
43678;SDS011;29279;50.858;4.392;2023-09-30T02:05:12;25.80;;;7.57;;
43678;SDS011;29279;50.858;4.392;2023-09-30T02:07:38;21.70;;;7.28;;
43678;SDS011;29279;50.858;4.392;2023-09-30T02:10:04;21.98;;;7.90;;
43678;SDS011;29279;50.858;4.392;2023-09-30T02:12:30;17.63;;;6.65;;
43678;SDS011;29279;50.858;4.392;2023-09-30T02:14:57;27.80;;;7.85;;
43678;SDS011;29279;50.858;4.392;2023-09-30T02:17:23;22.20;;;7.95;;
43678;SDS011;29279;50.858;4.392;2023-09-30T02:19:49;20.83;;;7.07;;
43678;SDS011;29279;50.858;4.392;2023-09-30T02:22:15;29.45;;;8.07;;
43678;SDS011;29279;50.858;4.392;2023-09-30T02:24:41;21.83;;;7.72;;
43678;SDS011;29279;50.858;4.392;2023-09-30T02:27:06;20.23;;;7.97;;
43678;SDS011;29279;50.858;4.392;2023-09-30T02:29:33;20.58;;;8.05;;
43678;SDS011;29279;50.858;4.392;2023-09-30T02:31:58;20.52;;;7.25;;
43678;SDS011;29279;50.858;4.392;2023-09-30T02:34:24;19.10;;;7.47;;
43678;SDS011;29279;50.858;4.392;2023-09-30T02:36:50;17.90;;;6.93;;
43678;SDS011;29279;50.858;4.392;2023-09-30T02:39:16;24.15;;;8.23;;
43678;SDS011;29279;50.858;4.392;2023-09-30T02:41:42;23.35;;;8.13;;
43678;SDS011;29279;50.858;4.392;2023-09-30T02:44:08;28.45;;;8.52;;
43678;SDS011;29279;50.858;4.392;2023-09-30T02:46:34;24.90;;;8.70;;
43678;SDS011;29279;50.858;4.392;2023-09-30T02:49:03;20.40;;;9.02;;
43678;SDS011;29279;50.858;4.392;2023-09-30T02:51:29;26.05;;;9.20;;
43678;SDS011;29279;50.858;4.392;2023-09-30T02:53:55;22.85;;;8.45;;
43678;SDS011;29279;50.858;4.392;2023-09-30T02:56:21;25.83;;;8.50;;
43678;SDS011;29279;50.858;4.392;2023-09-30T02:58:49;23.75;;;8.32;;
43678;SDS011;29279;50.858;4.392;2023-09-30T03:01:17;23.33;;;8.65;;
43678;SDS011;29279;50.858;4.392;2023-09-30T03:03:43;30.75;;;8.98;;
43678;SDS011;29279;50.858;4.392;2023-09-30T03:06:09;25.00;;;8.90;;
43678;SDS011;29279;50.858;4.392;2023-09-30T03:08:36;22.00;;;8.77;;
43678;SDS011;29279;50.858;4.392;2023-09-30T03:11:02;24.65;;;9.32;;
43678;SDS011;29279;50.858;4.392;2023-09-30T03:13:28;31.67;;;9.48;;
43678;SDS011;29279;50.858;4.392;2023-09-30T03:15:55;31.30;;;8.98;;
43678;SDS011;29279;50.858;4.392;2023-09-30T03:18:21;28.08;;;9.20;;
43678;SDS011;29279;50.858;4.392;2023-09-30T03:20:51;29.17;;;9.45;;
43678;SDS011;29279;50.858;4.392;2023-09-30T03:23:25;26.02;;;9.27;;
43678;SDS011;29279;50.858;4.392;2023-09-30T03:25:57;25.10;;;9.10;;
43678;SDS011;29279;50.858;4.392;2023-09-30T03:28:23;26.08;;;9.20;;
43678;SDS011;29279;50.858;4.392;2023-09-30T03:30:49;31.65;;;9.45;;
43678;SDS011;29279;50.858;4.392;2023-09-30T03:33:15;30.90;;;9.13;;
43678;SDS011;29279;50.858;4.392;2023-09-30T03:35:42;27.40;;;9.07;;
43678;SDS011;29279;50.858;4.392;2023-09-30T03:38:07;31.40;;;11.18;;
43678;SDS011;29279;50.858;4.392;2023-09-30T03:40:35;30.52;;;9.98;;
43678;SDS011;29279;50.858;4.392;2023-09-30T03:43:03;32.25;;;10.27;;
43678;SDS011;29279;50.858;4.392;2023-09-30T03:45:30;28.88;;;9.45;;
43678;SDS011;29279;50.858;4.392;2023-09-30T03:48:00;31.38;;;11.75;;
43678;SDS011;29279;50.858;4.392;2023-09-30T03:50:27;35.58;;;12.57;;
43678;SDS011;29279;50.858;4.392;2023-09-30T03:53:00;39.28;;;11.90;;
43678;SDS011;29279;50.858;4.392;2023-09-30T03:55:26;36.30;;;12.30;;
43678;SDS011;29279;50.858;4.392;2023-09-30T03:57:54;35.67;;;12.35;;
43678;SDS011;29279;50.858;4.392;2023-09-30T04:00:20;30.95;;;12.02;;
43678;SDS011;29279;50.858;4.392;2023-09-30T04:02:46;37.80;;;11.38;;
43678;SDS011;29279;50.858;4.392;2023-09-30T04:05:18;35.35;;;12.52;;
43678;SDS011;29279;50.858;4.392;2023-09-30T04:10:17;32.33;;;11.35;;
43678;SDS011;29279;50.858;4.392;2023-09-30T04:12:43;35.95;;;12.50;;
43678;SDS011;29279;50.858;4.392;2023-09-30T04:15:09;38.85;;;12.02;;
43678;SDS011;29279;50.858;4.392;2023-09-30T04:17:38;47.47;;;13.15;;
43678;SDS011;29279;50.858;4.392;2023-09-30T04:20:05;41.08;;;12.80;;
43678;SDS011;29279;50.858;4.392;2023-09-30T04:22:35;37.60;;;12.93;;
43678;SDS011;29279;50.858;4.392;2023-09-30T04:25:01;50.05;;;13.20;;
43678;SDS011;29279;50.858;4.392;2023-09-30T04:27:31;36.35;;;12.30;;
43678;SDS011;29279;50.858;4.392;2023-09-30T04:29:56;42.03;;;13.13;;
43678;SDS011;29279;50.858;4.392;2023-09-30T04:32:22;32.28;;;12.18;;
43678;SDS011;29279;50.858;4.392;2023-09-30T04:34:48;41.35;;;12.63;;
43678;SDS011;29279;50.858;4.392;2023-09-30T04:37:13;45.38;;;13.00;;
43678;SDS011;29279;50.858;4.392;2023-09-30T04:39:39;42.47;;;13.45;;
43678;SDS011;29279;50.858;4.392;2023-09-30T04:42:05;33.17;;;11.50;;
43678;SDS011;29279;50.858;4.392;2023-09-30T04:44:30;44.58;;;11.80;;
43678;SDS011;29279;50.858;4.392;2023-09-30T04:46:56;40.58;;;11.50;;
43678;SDS011;29279;50.858;4.392;2023-09-30T04:49:23;36.75;;;12.43;;
43678;SDS011;29279;50.858;4.392;2023-09-30T04:51:49;47.80;;;12.60;;
43678;SDS011;29279;50.858;4.392;2023-09-30T04:54:15;38.50;;;12.18;;
43678;SDS011;29279;50.858;4.392;2023-09-30T04:56:40;39.17;;;12.05;;
43678;SDS011;29279;50.858;4.392;2023-09-30T04:59:06;36.25;;;10.32;;
43678;SDS011;29279;50.858;4.392;2023-09-30T05:01:32;31.75;;;10.80;;
43678;SDS011;29279;50.858;4.392;2023-09-30T05:03:58;39.08;;;11.55;;
43678;SDS011;29279;50.858;4.392;2023-09-30T05:06:24;44.58;;;11.38;;
43678;SDS011;29279;50.858;4.392;2023-09-30T05:08:49;38.60;;;11.90;;
43678;SDS011;29279;50.858;4.392;2023-09-30T05:11:15;36.08;;;11.45;;
43678;SDS011;29279;50.858;4.392;2023-09-30T05:13:41;39.00;;;11.82;;
43678;SDS011;29279;50.858;4.392;2023-09-30T05:16:07;46.67;;;11.70;;
43678;SDS011;29279;50.858;4.392;2023-09-30T05:18:33;32.78;;;11.23;;
43678;SDS011;29279;50.858;4.392;2023-09-30T05:20:59;47.30;;;11.25;;
43678;SDS011;29279;50.858;4.392;2023-09-30T05:23:25;41.60;;;11.38;;
43678;SDS011;29279;50.858;4.392;2023-09-30T05:25:51;42.22;;;10.77;;
43678;SDS011;29279;50.858;4.392;2023-09-30T05:28:18;39.47;;;11.25;;
43678;SDS011;29279;50.858;4.392;2023-09-30T05:30:46;39.85;;;11.07;;
43678;SDS011;29279;50.858;4.392;2023-09-30T05:33:12;42.88;;;10.57;;
43678;SDS011;29279;50.858;4.392;2023-09-30T05:35:42;36.78;;;10.82;;
43678;SDS011;29279;50.858;4.392;2023-09-30T05:38:07;37.22;;;10.45;;
43678;SDS011;29279;50.858;4.392;2023-09-30T05:40:33;39.28;;;10.75;;
43678;SDS011;29279;50.858;4.392;2023-09-30T05:42:59;43.45;;;11.55;;
43678;SDS011;29279;50.858;4.392;2023-09-30T05:45:25;39.05;;;9.75;;
43678;SDS011;29279;50.858;4.392;2023-09-30T05:47:52;35.40;;;10.23;;
43678;SDS011;29279;50.858;4.392;2023-09-30T05:50:20;42.30;;;10.88;;
43678;SDS011;29279;50.858;4.392;2023-09-30T05:52:54;32.55;;;10.25;;
43678;SDS011;29279;50.858;4.392;2023-09-30T05:55:21;41.53;;;10.75;;
43678;SDS011;29279;50.858;4.392;2023-09-30T05:57:47;36.83;;;10.68;;
43678;SDS011;29279;50.858;4.392;2023-09-30T06:00:17;39.60;;;10.25;;
43678;SDS011;29279;50.858;4.392;2023-09-30T06:02:50;37.95;;;10.75;;
43678;SDS011;29279;50.858;4.392;2023-09-30T06:05:17;41.35;;;11.02;;
43678;SDS011;29279;50.858;4.392;2023-09-30T06:07:47;47.65;;;11.20;;
43678;SDS011;29279;50.858;4.392;2023-09-30T06:10:16;36.25;;;10.63;;
43678;SDS011;29279;50.858;4.392;2023-09-30T06:12:44;40.50;;;10.57;;
43678;SDS011;29279;50.858;4.392;2023-09-30T06:15:11;48.55;;;10.65;;
43678;SDS011;29279;50.858;4.392;2023-09-30T06:17:38;42.92;;;11.02;;
43678;SDS011;29279;50.858;4.392;2023-09-30T06:20:05;35.85;;;10.55;;
43678;SDS011;29279;50.858;4.392;2023-09-30T06:22:34;41.40;;;10.68;;
43678;SDS011;29279;50.858;4.392;2023-09-30T06:25:00;47.45;;;11.25;;
43678;SDS011;29279;50.858;4.392;2023-09-30T06:27:28;38.20;;;11.40;;
43678;SDS011;29279;50.858;4.392;2023-09-30T06:29:54;46.65;;;11.25;;
43678;SDS011;29279;50.858;4.392;2023-09-30T06:32:20;34.38;;;8.82;;
43678;SDS011;29279;50.858;4.392;2023-09-30T06:34:46;35.17;;;9.43;;
43678;SDS011;29279;50.858;4.392;2023-09-30T06:37:12;32.22;;;8.73;;
43678;SDS011;29279;50.858;4.392;2023-09-30T06:39:37;34.33;;;8.90;;
43678;SDS011;29279;50.858;4.392;2023-09-30T06:42:03;39.10;;;9.90;;
43678;SDS011;29279;50.858;4.392;2023-09-30T06:44:28;39.92;;;8.60;;
43678;SDS011;29279;50.858;4.392;2023-09-30T06:46:56;38.92;;;9.20;;
43678;SDS011;29279;50.858;4.392;2023-09-30T06:49:21;39.33;;;8.90;;
43678;SDS011;29279;50.858;4.392;2023-09-30T06:51:47;30.85;;;8.45;;
43678;SDS011;29279;50.858;4.392;2023-09-30T06:54:13;44.97;;;9.27;;
43678;SDS011;29279;50.858;4.392;2023-09-30T06:56:38;30.60;;;8.77;;
43678;SDS011;29279;50.858;4.392;2023-09-30T06:59:04;45.10;;;9.27;;
43678;SDS011;29279;50.858;4.392;2023-09-30T07:01:31;33.38;;;8.30;;
43678;SDS011;29279;50.858;4.392;2023-09-30T07:03:57;33.38;;;8.68;;
43678;SDS011;29279;50.858;4.392;2023-09-30T07:06:23;44.22;;;9.55;;
43678;SDS011;29279;50.858;4.392;2023-09-30T07:08:50;42.83;;;9.95;;
43678;SDS011;29279;50.858;4.392;2023-09-30T07:11:16;35.58;;;8.65;;
43678;SDS011;29279;50.858;4.392;2023-09-30T07:13:41;32.40;;;7.97;;
43678;SDS011;29279;50.858;4.392;2023-09-30T07:16:07;30.85;;;8.30;;
43678;SDS011;29279;50.858;4.392;2023-09-30T07:18:33;48.55;;;7.82;;
43678;SDS011;29279;50.858;4.392;2023-09-30T07:21:01;45.95;;;7.43;;
43678;SDS011;29279;50.858;4.392;2023-09-30T07:23:29;38.03;;;7.57;;
43678;SDS011;29279;50.858;4.392;2023-09-30T07:25:55;31.48;;;7.88;;
43678;SDS011;29279;50.858;4.392;2023-09-30T07:28:22;39.45;;;7.43;;
43678;SDS011;29279;50.858;4.392;2023-09-30T07:30:48;30.70;;;7.32;;
43678;SDS011;29279;50.858;4.392;2023-09-30T07:33:13;34.28;;;7.75;;
43678;SDS011;29279;50.858;4.392;2023-09-30T07:35:39;35.03;;;7.18;;
43678;SDS011;29279;50.858;4.392;2023-09-30T07:38:05;38.33;;;8.07;;
43678;SDS011;29279;50.858;4.392;2023-09-30T07:40:30;29.42;;;6.63;;
43678;SDS011;29279;50.858;4.392;2023-09-30T07:42:56;38.38;;;7.03;;
43678;SDS011;29279;50.858;4.392;2023-09-30T07:45:22;28.98;;;6.72;;
43678;SDS011;29279;50.858;4.392;2023-09-30T07:47:48;39.40;;;7.47;;
43678;SDS011;29279;50.858;4.392;2023-09-30T07:50:14;35.70;;;8.32;;
43678;SDS011;29279;50.858;4.392;2023-09-30T07:52:40;29.65;;;8.38;;
43678;SDS011;29279;50.858;4.392;2023-09-30T07:55:07;30.23;;;7.65;;
43678;SDS011;29279;50.858;4.392;2023-09-30T07:57:34;31.55;;;7.72;;
43678;SDS011;29279;50.858;4.392;2023-09-30T08:00:00;33.53;;;8.50;;
43678;SDS011;29279;50.858;4.392;2023-09-30T08:02:28;35.50;;;8.25;;
43678;SDS011;29279;50.858;4.392;2023-09-30T08:04:58;30.92;;;7.18;;
43678;SDS011;29279;50.858;4.392;2023-09-30T08:07:24;28.10;;;7.57;;
43678;SDS011;29279;50.858;4.392;2023-09-30T08:09:51;29.73;;;6.72;;
43678;SDS011;29279;50.858;4.392;2023-09-30T08:12:17;36.92;;;8.00;;
43678;SDS011;29279;50.858;4.392;2023-09-30T08:14:42;35.13;;;7.97;;
43678;SDS011;29279;50.858;4.392;2023-09-30T08:17:11;34.00;;;8.88;;
43678;SDS011;29279;50.858;4.392;2023-09-30T08:19:37;28.48;;;7.72;;
43678;SDS011;29279;50.858;4.392;2023-09-30T08:22:03;34.22;;;8.35;;
43678;SDS011;29279;50.858;4.392;2023-09-30T08:24:28;33.90;;;8.27;;
43678;SDS011;29279;50.858;4.392;2023-09-30T08:26:54;27.30;;;7.68;;
43678;SDS011;29279;50.858;4.392;2023-09-30T08:29:21;35.22;;;9.18;;
43678;SDS011;29279;50.858;4.392;2023-09-30T08:31:47;29.80;;;8.00;;
43678;SDS011;29279;50.858;4.392;2023-09-30T08:34:15;30.10;;;8.30;;
43678;SDS011;29279;50.858;4.392;2023-09-30T08:36:42;33.45;;;8.27;;
43678;SDS011;29279;50.858;4.392;2023-09-30T08:39:08;28.90;;;8.35;;
43678;SDS011;29279;50.858;4.392;2023-09-30T08:41:35;35.05;;;8.23;;
43678;SDS011;29279;50.858;4.392;2023-09-30T08:44:01;30.30;;;8.15;;
43678;SDS011;29279;50.858;4.392;2023-09-30T08:46:32;29.55;;;8.13;;
43678;SDS011;29279;50.858;4.392;2023-09-30T08:49:02;30.25;;;7.82;;
43678;SDS011;29279;50.858;4.392;2023-09-30T08:51:31;32.00;;;8.23;;
43678;SDS011;29279;50.858;4.392;2023-09-30T08:53:58;29.23;;;8.18;;
43678;SDS011;29279;50.858;4.392;2023-09-30T08:56:25;26.95;;;7.72;;
43678;SDS011;29279;50.858;4.392;2023-09-30T08:58:56;31.60;;;7.85;;
43678;SDS011;29279;50.858;4.392;2023-09-30T09:01:24;21.13;;;6.97;;
43678;SDS011;29279;50.858;4.392;2023-09-30T09:03:51;23.25;;;7.40;;
43678;SDS011;29279;50.858;4.392;2023-09-30T09:06:20;31.77;;;7.50;;
43678;SDS011;29279;50.858;4.392;2023-09-30T09:08:47;29.45;;;8.15;;
43678;SDS011;29279;50.858;4.392;2023-09-30T09:11:13;22.58;;;7.15;;
43678;SDS011;29279;50.858;4.392;2023-09-30T09:16:15;19.45;;;6.55;;
43678;SDS011;29279;50.858;4.392;2023-09-30T09:18:42;25.90;;;7.40;;
43678;SDS011;29279;50.858;4.392;2023-09-30T09:21:12;22.33;;;7.93;;
43678;SDS011;29279;50.858;4.392;2023-09-30T09:23:49;27.35;;;6.82;;
43678;SDS011;29279;50.858;4.392;2023-09-30T09:28:49;19.35;;;6.93;;
43678;SDS011;29279;50.858;4.392;2023-09-30T09:31:36;25.02;;;7.15;;
43678;SDS011;29279;50.858;4.392;2023-09-30T09:34:04;22.60;;;7.13;;
43678;SDS011;29279;50.858;4.392;2023-09-30T09:36:40;25.27;;;7.20;;
43678;SDS011;29279;50.858;4.392;2023-09-30T09:39:10;25.70;;;7.43;;
43678;SDS011;29279;50.858;4.392;2023-09-30T09:41:53;21.05;;;7.07;;
43678;SDS011;29279;50.858;4.392;2023-09-30T09:44:21;20.48;;;5.82;;
43678;SDS011;29279;50.858;4.392;2023-09-30T09:46:48;19.33;;;5.47;;
43678;SDS011;29279;50.858;4.392;2023-09-30T09:49:17;15.40;;;5.32;;
43678;SDS011;29279;50.858;4.392;2023-09-30T09:51:45;19.38;;;5.47;;
43678;SDS011;29279;50.858;4.392;2023-09-30T09:54:11;18.08;;;5.07;;
43678;SDS011;29279;50.858;4.392;2023-09-30T09:56:38;17.42;;;4.70;;
43678;SDS011;29279;50.858;4.392;2023-09-30T09:59:04;21.38;;;5.35;;
43678;SDS011;29279;50.858;4.392;2023-09-30T10:01:32;21.30;;;5.90;;
43678;SDS011;29279;50.858;4.392;2023-09-30T10:04:00;18.40;;;5.03;;
43678;SDS011;29279;50.858;4.392;2023-09-30T10:06:26;14.82;;;5.15;;
43678;SDS011;29279;50.858;4.392;2023-09-30T10:08:53;20.33;;;6.30;;
43678;SDS011;29279;50.858;4.392;2023-09-30T10:11:22;17.77;;;5.78;;
43678;SDS011;29279;50.858;4.392;2023-09-30T10:13:58;18.77;;;5.43;;
43678;SDS011;29279;50.858;4.392;2023-09-30T10:19:08;15.90;;;4.68;;
43678;SDS011;29279;50.858;4.392;2023-09-30T10:21:35;18.23;;;4.55;;
43678;SDS011;29279;50.858;4.392;2023-09-30T10:40:47;17.27;;;5.35;;
43678;SDS011;29279;50.858;4.392;2023-09-30T10:43:29;13.05;;;4.88;;
43678;SDS011;29279;50.858;4.392;2023-09-30T10:45:59;23.73;;;5.75;;
43678;SDS011;29279;50.858;4.392;2023-09-30T10:50:55;21.77;;;9.20;;
43678;SDS011;29279;50.858;4.392;2023-09-30T10:53:24;28.30;;;10.02;;
43678;SDS011;29279;50.858;4.392;2023-09-30T10:55:58;20.83;;;7.78;;
43678;SDS011;29279;50.858;4.392;2023-09-30T11:01:17;19.52;;;5.68;;
43678;SDS011;29279;50.858;4.392;2023-09-30T11:03:44;14.82;;;5.50;;
43678;SDS011;29279;50.858;4.392;2023-09-30T11:06:14;16.00;;;4.97;;
43678;SDS011;29279;50.858;4.392;2023-09-30T11:11:19;16.58;;;4.90;;
43678;SDS011;29279;50.858;4.392;2023-09-30T11:13:56;18.58;;;4.53;;
43678;SDS011;29279;50.858;4.392;2023-09-30T11:16:21;18.17;;;5.30;;
43678;SDS011;29279;50.858;4.392;2023-09-30T11:18:52;14.82;;;4.15;;
43678;SDS011;29279;50.858;4.392;2023-09-30T11:21:18;14.93;;;4.25;;
43678;SDS011;29279;50.858;4.392;2023-09-30T11:23:44;17.77;;;4.35;;
43678;SDS011;29279;50.858;4.392;2023-09-30T11:26:10;13.23;;;4.13;;
43678;SDS011;29279;50.858;4.392;2023-09-30T11:28:42;18.35;;;4.28;;
43678;SDS011;29279;50.858;4.392;2023-09-30T11:31:12;14.75;;;4.32;;
43678;SDS011;29279;50.858;4.392;2023-09-30T11:36:36;12.52;;;4.15;;
43678;SDS011;29279;50.858;4.392;2023-09-30T11:39:08;11.50;;;3.70;;
43678;SDS011;29279;50.858;4.392;2023-09-30T11:41:41;15.27;;;4.75;;
43678;SDS011;29279;50.858;4.392;2023-09-30T11:44:09;18.30;;;4.20;;
43678;SDS011;29279;50.858;4.392;2023-09-30T11:49:30;15.70;;;4.30;;
43678;SDS011;29279;50.858;4.392;2023-09-30T11:52:00;12.57;;;3.72;;
43678;SDS011;29279;50.858;4.392;2023-09-30T11:54:33;16.85;;;4.65;;
43678;SDS011;29279;50.858;4.392;2023-09-30T11:57:08;17.35;;;4.30;;
43678;SDS011;29279;50.858;4.392;2023-09-30T11:59:35;12.38;;;3.95;;
43678;SDS011;29279;50.858;4.392;2023-09-30T12:02:02;15.85;;;4.13;;
43678;SDS011;29279;50.858;4.392;2023-09-30T12:04:36;16.25;;;4.32;;
43678;SDS011;29279;50.858;4.392;2023-09-30T12:07:03;12.50;;;3.72;;
43678;SDS011;29279;50.858;4.392;2023-09-30T12:09:29;13.43;;;3.90;;
43678;SDS011;29279;50.858;4.392;2023-09-30T12:11:56;15.02;;;3.63;;
43678;SDS011;29279;50.858;4.392;2023-09-30T12:14:25;8.23;;;3.55;;
43678;SDS011;29279;50.858;4.392;2023-09-30T12:16:50;17.20;;;4.50;;
43678;SDS011;29279;50.858;4.392;2023-09-30T12:19:16;12.82;;;4.20;;
43678;SDS011;29279;50.858;4.392;2023-09-30T12:21:43;13.52;;;4.50;;
43678;SDS011;29279;50.858;4.392;2023-09-30T12:24:12;15.57;;;4.78;;
43678;SDS011;29279;50.858;4.392;2023-09-30T12:26:41;11.20;;;3.97;;
43678;SDS011;29279;50.858;4.392;2023-09-30T12:29:16;14.88;;;4.10;;
43678;SDS011;29279;50.858;4.392;2023-09-30T12:31:50;15.55;;;4.32;;
43678;SDS011;29279;50.858;4.392;2023-09-30T12:34:17;10.65;;;3.97;;
43678;SDS011;29279;50.858;4.392;2023-09-30T12:36:43;12.20;;;3.75;;
43678;SDS011;29279;50.858;4.392;2023-09-30T12:39:10;11.45;;;3.63;;
43678;SDS011;29279;50.858;4.392;2023-09-30T12:41:42;13.23;;;4.10;;
43678;SDS011;29279;50.858;4.392;2023-09-30T12:44:09;14.35;;;4.28;;
43678;SDS011;29279;50.858;4.392;2023-09-30T12:46:36;11.38;;;3.75;;
43678;SDS011;29279;50.858;4.392;2023-09-30T12:49:04;14.57;;;4.05;;
43678;SDS011;29279;50.858;4.392;2023-09-30T12:51:34;12.98;;;4.15;;
43678;SDS011;29279;50.858;4.392;2023-09-30T12:54:00;11.95;;;4.00;;
43678;SDS011;29279;50.858;4.392;2023-09-30T12:56:26;10.95;;;3.72;;
43678;SDS011;29279;50.858;4.392;2023-09-30T12:58:54;11.77;;;3.28;;
43678;SDS011;29279;50.858;4.392;2023-09-30T13:01:20;12.52;;;3.53;;
43678;SDS011;29279;50.858;4.392;2023-09-30T13:03:46;10.25;;;3.25;;
43678;SDS011;29279;50.858;4.392;2023-09-30T13:06:15;14.88;;;4.38;;
43678;SDS011;29279;50.858;4.392;2023-09-30T13:08:43;15.15;;;3.83;;
43678;SDS011;29279;50.858;4.392;2023-09-30T13:11:09;10.32;;;3.28;;
43678;SDS011;29279;50.858;4.392;2023-09-30T13:13:36;8.50;;;3.53;;
43678;SDS011;29279;50.858;4.392;2023-09-30T13:16:03;9.65;;;4.47;;
43678;SDS011;29279;50.858;4.392;2023-09-30T13:18:34;11.52;;;3.40;;
43678;SDS011;29279;50.858;4.392;2023-09-30T13:21:01;9.05;;;3.03;;
43678;SDS011;29279;50.858;4.392;2023-09-30T13:23:27;11.48;;;3.35;;
43678;SDS011;29279;50.858;4.392;2023-09-30T13:25:52;16.85;;;4.25;;
43678;SDS011;29279;50.858;4.392;2023-09-30T13:28:18;10.07;;;3.70;;
43678;SDS011;29279;50.858;4.392;2023-09-30T13:30:44;14.88;;;3.88;;
43678;SDS011;29279;50.858;4.392;2023-09-30T13:33:11;13.60;;;3.90;;
43678;SDS011;29279;50.858;4.392;2023-09-30T13:35:36;11.40;;;4.32;;
43678;SDS011;29279;50.858;4.392;2023-09-30T13:38:03;12.15;;;4.13;;
43678;SDS011;29279;50.858;4.392;2023-09-30T13:40:29;14.27;;;4.10;;
43678;SDS011;29279;50.858;4.392;2023-09-30T13:42:55;10.05;;;3.88;;
43678;SDS011;29279;50.858;4.392;2023-09-30T13:45:22;10.80;;;3.47;;
43678;SDS011;29279;50.858;4.392;2023-09-30T13:47:48;18.17;;;4.25;;
43678;SDS011;29279;50.858;4.392;2023-09-30T13:50:13;15.05;;;4.13;;
43678;SDS011;29279;50.858;4.392;2023-09-30T13:52:39;13.68;;;4.18;;
43678;SDS011;29279;50.858;4.392;2023-09-30T13:55:05;11.10;;;3.35;;
43678;SDS011;29279;50.858;4.392;2023-09-30T13:57:31;9.02;;;3.70;;
43678;SDS011;29279;50.858;4.392;2023-09-30T13:59:57;10.10;;;3.28;;
43678;SDS011;29279;50.858;4.392;2023-09-30T14:02:23;12.50;;;4.03;;
43678;SDS011;29279;50.858;4.392;2023-09-30T14:04:49;8.25;;;3.28;;
43678;SDS011;29279;50.858;4.392;2023-09-30T14:07:14;11.55;;;3.83;;
43678;SDS011;29279;50.858;4.392;2023-09-30T14:09:43;11.95;;;3.33;;
43678;SDS011;29279;50.858;4.392;2023-09-30T14:12:09;11.25;;;3.83;;
43678;SDS011;29279;50.858;4.392;2023-09-30T14:14:35;12.35;;;3.42;;
43678;SDS011;29279;50.858;4.392;2023-09-30T14:17:01;10.20;;;3.20;;
43678;SDS011;29279;50.858;4.392;2023-09-30T14:19:32;13.57;;;3.10;;
43678;SDS011;29279;50.858;4.392;2023-09-30T14:21:59;14.00;;;3.63;;
43678;SDS011;29279;50.858;4.392;2023-09-30T14:24:25;7.47;;;2.60;;
43678;SDS011;29279;50.858;4.392;2023-09-30T14:26:51;15.38;;;4.47;;
43678;SDS011;29279;50.858;4.392;2023-09-30T14:29:16;11.93;;;3.22;;
43678;SDS011;29279;50.858;4.392;2023-09-30T14:31:42;12.20;;;3.75;;
43678;SDS011;29279;50.858;4.392;2023-09-30T14:34:08;9.85;;;4.00;;
43678;SDS011;29279;50.858;4.392;2023-09-30T14:36:34;11.20;;;3.35;;
43678;SDS011;29279;50.858;4.392;2023-09-30T14:39:00;13.55;;;4.28;;
43678;SDS011;29279;50.858;4.392;2023-09-30T14:41:25;15.10;;;3.95;;
43678;SDS011;29279;50.858;4.392;2023-09-30T14:43:51;13.95;;;3.72;;
43678;SDS011;29279;50.858;4.392;2023-09-30T14:46:17;13.88;;;7.00;;
43678;SDS011;29279;50.858;4.392;2023-09-30T14:48:42;14.45;;;4.57;;
43678;SDS011;29279;50.858;4.392;2023-09-30T14:51:09;13.45;;;4.32;;
43678;SDS011;29279;50.858;4.392;2023-09-30T14:53:34;11.63;;;3.90;;
43678;SDS011;29279;50.858;4.392;2023-09-30T14:56:00;9.95;;;3.35;;
43678;SDS011;29279;50.858;4.392;2023-09-30T14:58:26;18.42;;;6.95;;
43678;SDS011;29279;50.858;4.392;2023-09-30T15:00:51;11.27;;;3.13;;
43678;SDS011;29279;50.858;4.392;2023-09-30T15:03:18;15.02;;;4.30;;
43678;SDS011;29279;50.858;4.392;2023-09-30T15:05:46;13.35;;;3.58;;
43678;SDS011;29279;50.858;4.392;2023-09-30T15:08:14;10.82;;;3.42;;
43678;SDS011;29279;50.858;4.392;2023-09-30T15:10:39;16.52;;;3.97;;
43678;SDS011;29279;50.858;4.392;2023-09-30T15:13:05;13.32;;;3.40;;